sensor_id;sensor_type;location;lat;lon;timestamp;pressure;altitude;pressure_sealevel;temperature;humidity
31299;BME280;17927;52.350;13.402;2023-02-28T00:00:24;102747.31;;;6.85;45.73
31299;BME280;17927;52.350;13.402;2023-02-28T00:02:49;102745.53;;;6.86;45.44
31299;BME280;17927;52.350;13.402;2023-02-28T00:05:18;102747.41;;;6.84;45.76
31299;BME280;17927;52.350;13.402;2023-02-28T00:07:44;102748.28;;;6.84;45.84
31299;BME280;17927;52.350;13.402;2023-02-28T00:10:12;102736.75;;;6.82;45.42
31299;BME280;17927;52.350;13.402;2023-02-28T00:12:38;102744.81;;;6.82;45.67
31299;BME280;17927;52.350;13.402;2023-02-28T00:15:08;102740.28;;;6.83;45.79
31299;BME280;17927;52.350;13.402;2023-02-28T00:17:34;102741.69;;;6.71;45.91
31299;BME280;17927;52.350;13.402;2023-02-28T00:19:59;102747.06;;;6.71;45.99
31299;BME280;17927;52.350;13.402;2023-02-28T00:22:38;102744.22;;;6.76;45.81
31299;BME280;17927;52.350;13.402;2023-02-28T00:25:04;102752.09;;;6.79;45.90
31299;BME280;17927;52.350;13.402;2023-02-28T00:27:31;102747.53;;;6.81;45.54
31299;BME280;17927;52.350;13.402;2023-02-28T00:29:57;102744.84;;;6.81;45.79
31299;BME280;17927;52.350;13.402;2023-02-28T00:32:22;102741.31;;;6.80;45.84
31299;BME280;17927;52.350;13.402;2023-02-28T00:34:47;102743.06;;;6.81;45.81
31299;BME280;17927;52.350;13.402;2023-02-28T00:37:13;102748.44;;;6.81;45.92
31299;BME280;17927;52.350;13.402;2023-02-28T00:39:38;102746.59;;;6.82;45.96
31299;BME280;17927;52.350;13.402;2023-02-28T00:42:04;102740.38;;;6.81;45.92
31299;BME280;17927;52.350;13.402;2023-02-28T00:44:30;102747.53;;;6.81;46.02
31299;BME280;17927;52.350;13.402;2023-02-28T00:46:56;102747.50;;;6.82;45.92
31299;BME280;17927;52.350;13.402;2023-02-28T00:49:22;102743.91;;;6.82;45.89
31299;BME280;17927;52.350;13.402;2023-02-28T00:51:47;102746.59;;;6.82;45.90
31299;BME280;17927;52.350;13.402;2023-02-28T00:54:12;102747.53;;;6.81;45.99
31299;BME280;17927;52.350;13.402;2023-02-28T00:56:38;102751.16;;;6.80;45.96
31299;BME280;17927;52.350;13.402;2023-02-28T00:59:03;102739.47;;;6.81;46.15
31299;BME280;17927;52.350;13.402;2023-02-28T01:01:28;102750.22;;;6.81;45.97
31299;BME280;17927;52.350;13.402;2023-02-28T01:03:53;102743.91;;;6.82;45.98
31299;BME280;17927;52.350;13.402;2023-02-28T01:06:19;102743.91;;;6.82;45.99
31299;BME280;17927;52.350;13.402;2023-02-28T01:08:44;102750.16;;;6.82;46.14
31299;BME280;17927;52.350;13.402;2023-02-28T01:11:11;102760.84;;;6.84;46.14
31299;BME280;17927;52.350;13.402;2023-02-28T01:13:36;102754.66;;;6.82;46.25
31299;BME280;17927;52.350;13.402;2023-02-28T01:16:02;102750.22;;;6.81;46.05
31299;BME280;17927;52.350;13.402;2023-02-28T01:18:28;102744.94;;;6.79;45.83
31299;BME280;17927;52.350;13.402;2023-02-28T01:20:53;102749.41;;;6.79;45.93
31299;BME280;17927;52.350;13.402;2023-02-28T01:23:21;102746.72;;;6.79;45.97
31299;BME280;17927;52.350;13.402;2023-02-28T01:25:50;102739.69;;;6.76;46.03
31299;BME280;17927;52.350;13.402;2023-02-28T01:28:16;102742.28;;;6.78;46.21
31299;BME280;17927;52.350;13.402;2023-02-28T01:30:41;102733.47;;;6.76;46.24
31299;BME280;17927;52.350;13.402;2023-02-28T01:33:07;102735.34;;;6.74;46.07
31299;BME280;17927;52.350;13.402;2023-02-28T01:35:33;102733.59;;;6.73;46.33
31299;BME280;17927;52.350;13.402;2023-02-28T01:37:59;102734.44;;;6.73;46.18
31299;BME280;17927;52.350;13.402;2023-02-28T01:40:24;102730.03;;;6.72;46.35
31299;BME280;17927;52.350;13.402;2023-02-28T01:42:50;102735.38;;;6.72;46.39
31299;BME280;17927;52.350;13.402;2023-02-28T01:45:26;102734.53;;;6.72;46.32
31299;BME280;17927;52.350;13.402;2023-02-28T01:47:55;102731.91;;;6.70;46.34
31299;BME280;17927;52.350;13.402;2023-02-28T01:50:26;102734.75;;;6.67;46.39
31299;BME280;17927;52.350;13.402;2023-02-28T01:52:56;102734.78;;;6.65;46.21
31299;BME280;17927;52.350;13.402;2023-02-28T01:55:25;102727.75;;;6.63;46.19
31299;BME280;17927;52.350;13.402;2023-02-28T01:57:56;102729.56;;;6.62;46.32
31299;BME280;17927;52.350;13.402;2023-02-28T02:00:24;102734.06;;;6.62;46.37
31299;BME280;17927;52.350;13.402;2023-02-28T02:02:54;102732.41;;;6.59;46.24
31299;BME280;17927;52.350;13.402;2023-02-28T02:05:26;102728.91;;;6.57;46.26
31299;BME280;17927;52.350;13.402;2023-02-28T02:07:55;102726.44;;;6.52;46.10
31299;BME280;17927;52.350;13.402;2023-02-28T02:10:29;102722.06;;;6.50;46.06
31299;BME280;17927;52.350;13.402;2023-02-28T02:13:20;102732.91;;;6.47;46.11
31299;BME280;17927;52.350;13.402;2023-02-28T02:16:23;102730.44;;;6.42;46.16
31299;BME280;17927;52.350;13.402;2023-02-28T02:21:43;102727.25;;;6.34;46.15
31299;BME280;17927;52.350;13.402;2023-02-28T02:24:36;102726.50;;;6.30;46.21
31299;BME280;17927;52.350;13.402;2023-02-28T02:27:24;102725.75;;;6.27;46.35
31299;BME280;17927;52.350;13.402;2023-02-28T02:32:41;102722.34;;;6.23;46.50
31299;BME280;17927;52.350;13.402;2023-02-28T02:35:29;102722.47;;;6.20;46.68
31299;BME280;17927;52.350;13.402;2023-02-28T02:38:11;102722.59;;;6.17;46.67
31299;BME280;17927;52.350;13.402;2023-02-28T02:40:50;102719.13;;;6.15;46.85
31299;BME280;17927;52.350;13.402;2023-02-28T02:43:24;102726.28;;;6.14;46.69
31299;BME280;17927;52.350;13.402;2023-02-28T02:46:07;102717.41;;;6.12;47.08
31299;BME280;17927;52.350;13.402;2023-02-28T02:48:36;102718.44;;;6.09;46.71
31299;BME280;17927;52.350;13.402;2023-02-28T02:51:09;102722.06;;;6.08;47.17
31299;BME280;17927;52.350;13.402;2023-02-28T02:53:42;102718.63;;;6.05;46.89
31299;BME280;17927;52.350;13.402;2023-02-28T02:56:09;102718.75;;;6.02;46.87
31299;BME280;17927;52.350;13.402;2023-02-28T02:58:39;102726.03;;;5.98;46.95
31299;BME280;17927;52.350;13.402;2023-02-28T03:01:08;102727.84;;;5.98;46.91
31299;BME280;17927;52.350;13.402;2023-02-28T03:03:35;102725.28;;;5.94;46.48
31299;BME280;17927;52.350;13.402;2023-02-28T03:06:02;102728.97;;;5.92;46.72
31299;BME280;17927;52.350;13.402;2023-02-28T03:08:31;102722.88;;;5.88;46.82
31299;BME280;17927;52.350;13.402;2023-02-28T03:11:00;102724.78;;;5.85;46.75
31299;BME280;17927;52.350;13.402;2023-02-28T03:13:41;102731.16;;;5.82;46.92
31299;BME280;17927;52.350;13.402;2023-02-28T03:24:11;102733.97;;;5.57;46.71
31299;BME280;17927;52.350;13.402;2023-02-28T03:26:42;102737.72;;;5.53;46.76
31299;BME280;17927;52.350;13.402;2023-02-28T03:29:22;102739.13;;;5.39;46.76
31299;BME280;17927;52.350;13.402;2023-02-28T03:34:26;102733.09;;;5.34;46.88
31299;BME280;17927;52.350;13.402;2023-02-28T03:36:59;102743.03;;;5.30;46.85
31299;BME280;17927;52.350;13.402;2023-02-28T03:39:46;102743.09;;;5.29;46.98
31299;BME280;17927;52.350;13.402;2023-02-28T03:42:18;102742.47;;;5.22;46.83
31299;BME280;17927;52.350;13.402;2023-02-28T03:44:49;102745.28;;;5.19;46.94
31299;BME280;17927;52.350;13.402;2023-02-28T03:47:24;102739.19;;;5.14;46.78
31299;BME280;17927;52.350;13.402;2023-02-28T03:50:00;102739.34;;;5.11;46.78
31299;BME280;17927;52.350;13.402;2023-02-28T03:52:33;102744.06;;;5.04;46.91
31299;BME280;17927;52.350;13.402;2023-02-28T03:55:04;102746.03;;;4.99;46.95
31299;BME280;17927;52.350;13.402;2023-02-28T03:57:52;102740.88;;;4.93;46.73
31299;BME280;17927;52.350;13.402;2023-02-28T04:00:27;102741.31;;;4.82;46.99
31299;BME280;17927;52.350;13.402;2023-02-28T04:02:55;102745.06;;;4.76;46.86
31299;BME280;17927;52.350;13.402;2023-02-28T04:05:21;102744.41;;;4.69;47.01
31299;BME280;17927;52.350;13.402;2023-02-28T04:07:47;102749.03;;;4.66;46.96
31299;BME280;17927;52.350;13.402;2023-02-28T04:10:13;102745.63;;;4.61;47.10
31299;BME280;17927;52.350;13.402;2023-02-28T04:12:39;102744.88;;;4.57;46.93
31299;BME280;17927;52.350;13.402;2023-02-28T04:15:05;102751.38;;;4.50;46.95
31299;BME280;17927;52.350;13.402;2023-02-28T04:17:31;102748.06;;;4.43;46.91
31299;BME280;17927;52.350;13.402;2023-02-28T04:19:56;102748.25;;;4.37;47.30
31299;BME280;17927;52.350;13.402;2023-02-28T04:22:22;102750.22;;;4.32;47.06
31299;BME280;17927;52.350;13.402;2023-02-28T04:24:47;102752.13;;;4.28;47.16
31299;BME280;17927;52.350;13.402;2023-02-28T04:27:12;102755.00;;;4.22;47.06
31299;BME280;17927;52.350;13.402;2023-02-28T04:29:38;102751.53;;;4.20;46.95
31299;BME280;17927;52.350;13.402;2023-02-28T04:32:03;102750.72;;;4.18;47.10
31299;BME280;17927;52.350;13.402;2023-02-28T04:34:31;102753.50;;;4.13;46.89
31299;BME280;17927;52.350;13.402;2023-02-28T04:36:56;102753.56;;;4.11;47.03
31299;BME280;17927;52.350;13.402;2023-02-28T04:39:23;102752.72;;;4.11;47.21
31299;BME280;17927;52.350;13.402;2023-02-28T04:41:50;102759.09;;;4.07;47.27
31299;BME280;17927;52.350;13.402;2023-02-28T04:44:15;102755.66;;;4.03;47.28
31299;BME280;17927;52.350;13.402;2023-02-28T04:46:41;102761.03;;;4.02;47.38
31299;BME280;17927;52.350;13.402;2023-02-28T04:49:08;102768.22;;;4.00;47.33
31299;BME280;17927;52.350;13.402;2023-02-28T04:51:33;102766.53;;;3.97;47.19
31299;BME280;17927;52.350;13.402;2023-02-28T04:53:59;102775.50;;;3.96;47.23
31299;BME280;17927;52.350;13.402;2023-02-28T04:56:24;102769.38;;;3.92;47.31
31299;BME280;17927;52.350;13.402;2023-02-28T04:58:49;102781.00;;;3.91;47.44
31299;BME280;17927;52.350;13.402;2023-02-28T05:01:26;102775.75;;;3.88;47.41
31299;BME280;17927;52.350;13.402;2023-02-28T05:03:54;102775.84;;;3.85;47.45
31299;BME280;17927;52.350;13.402;2023-02-28T05:06:20;102777.66;;;3.85;47.48
31299;BME280;17927;52.350;13.402;2023-02-28T05:08:47;102772.38;;;3.81;47.49
31299;BME280;17927;52.350;13.402;2023-02-28T05:13:43;102775.16;;;3.78;47.64
31299;BME280;17927;52.350;13.402;2023-02-28T05:16:08;102776.97;;;3.78;47.65
31299;BME280;17927;52.350;13.402;2023-02-28T05:18:37;102772.53;;;3.77;47.75
31299;BME280;17927;52.350;13.402;2023-02-28T05:21:02;102774.38;;;3.75;47.76
31299;BME280;17927;52.350;13.402;2023-02-28T05:23:28;102775.38;;;3.72;47.92
31299;BME280;17927;52.350;13.402;2023-02-28T05:25:53;102772.72;;;3.71;47.76
31299;BME280;17927;52.350;13.402;2023-02-28T05:28:19;102777.22;;;3.70;47.79
31299;BME280;17927;52.350;13.402;2023-02-28T05:30:44;102785.25;;;3.69;47.82
31299;BME280;17927;52.350;13.402;2023-02-28T05:33:11;102780.03;;;3.65;47.87
31299;BME280;17927;52.350;13.402;2023-02-28T05:35:39;102783.66;;;3.63;48.01
31299;BME280;17927;52.350;13.402;2023-02-28T05:38:04;102776.72;;;3.57;47.96
31299;BME280;17927;52.350;13.402;2023-02-28T05:40:29;102784.81;;;3.54;47.99
31299;BME280;17927;52.350;13.402;2023-02-28T05:42:55;102786.78;;;3.49;47.97
31299;BME280;17927;52.350;13.402;2023-02-28T05:45:20;102784.22;;;3.44;47.84
31299;BME280;17927;52.350;13.402;2023-02-28T05:47:45;102782.59;;;3.40;47.88
31299;BME280;17927;52.350;13.402;2023-02-28T05:50:11;102790.69;;;3.37;47.89
31299;BME280;17927;52.350;13.402;2023-02-28T05:52:36;102791.63;;;3.36;47.97
31299;BME280;17927;52.350;13.402;2023-02-28T05:55:02;102797.81;;;3.37;47.88
31299;BME280;17927;52.350;13.402;2023-02-28T05:57:28;102795.22;;;3.35;47.84
31299;BME280;17927;52.350;13.402;2023-02-28T05:59:53;102794.38;;;3.33;47.86
31299;BME280;17927;52.350;13.402;2023-02-28T06:02:18;102801.53;;;3.32;47.87
31299;BME280;17927;52.350;13.402;2023-02-28T06:04:44;102801.53;;;3.32;47.79
31299;BME280;17927;52.350;13.402;2023-02-28T06:07:10;102798.88;;;3.31;47.86
31299;BME280;17927;52.350;13.402;2023-02-28T06:09:35;102800.72;;;3.29;47.70
31299;BME280;17927;52.350;13.402;2023-02-28T06:12:02;102807.88;;;3.28;47.81
31299;BME280;17927;52.350;13.402;2023-02-28T06:14:33;102809.63;;;3.29;48.12
31299;BME280;17927;52.350;13.402;2023-02-28T06:17:00;102801.53;;;3.32;48.02
31299;BME280;17927;52.350;13.402;2023-02-28T06:19:25;102806.75;;;3.35;48.17
31299;BME280;17927;52.350;13.402;2023-02-28T06:21:52;102801.31;;;3.39;48.12
31299;BME280;17927;52.350;13.402;2023-02-28T06:24:19;102814.53;;;3.43;48.38
31299;BME280;17927;52.350;13.402;2023-02-28T06:26:45;102816.19;;;3.49;48.37
31299;BME280;17927;52.350;13.402;2023-02-28T06:29:10;102820.47;;;3.55;48.45
31299;BME280;17927;52.350;13.402;2023-02-28T06:31:35;102814.88;;;3.62;48.66
31299;BME280;17927;52.350;13.402;2023-02-28T06:34:00;102812.84;;;3.71;48.77
31299;BME280;17927;52.350;13.402;2023-02-28T06:36:26;102821.44;;;3.80;48.88
31299;BME280;17927;52.350;13.402;2023-02-28T06:38:51;102819.41;;;3.89;48.84
31299;BME280;17927;52.350;13.402;2023-02-28T06:41:21;102827.13;;;3.98;49.04
31299;BME280;17927;52.350;13.402;2023-02-28T06:43:46;102818.78;;;4.09;48.90
31299;BME280;17927;52.350;13.402;2023-02-28T06:46:13;102827.38;;;4.19;49.13
31299;BME280;17927;52.350;13.402;2023-02-28T06:48:39;102818.16;;;4.28;49.31
31299;BME280;17927;52.350;13.402;2023-02-28T06:51:11;102835.66;;;4.38;49.25
31299;BME280;17927;52.350;13.402;2023-02-28T06:53:38;102838.00;;;4.47;49.35
31299;BME280;17927;52.350;13.402;2023-02-28T06:56:05;102842.13;;;4.57;49.43
31299;BME280;17927;52.350;13.402;2023-02-28T06:58:31;102833.78;;;4.67;49.36
31299;BME280;17927;52.350;13.402;2023-02-28T07:00:56;102838.88;;;4.75;49.42
31299;BME280;17927;52.350;13.402;2023-02-28T07:03:21;102838.50;;;4.85;49.54
31299;BME280;17927;52.350;13.402;2023-02-28T07:05:48;102845.25;;;4.96;49.61
31299;BME280;17927;52.350;13.402;2023-02-28T07:08:13;102848.56;;;5.04;49.34
31299;BME280;17927;52.350;13.402;2023-02-28T07:10:39;102844.59;;;5.14;49.53
31299;BME280;17927;52.350;13.402;2023-02-28T07:13:05;102847.00;;;5.22;49.32
31299;BME280;17927;52.350;13.402;2023-02-28T07:15:30;102852.00;;;5.31;49.29
31299;BME280;17927;52.350;13.402;2023-02-28T07:17:56;102854.47;;;5.38;49.47
31299;BME280;17927;52.350;13.402;2023-02-28T07:20:22;102850.63;;;5.45;49.49
31299;BME280;17927;52.350;13.402;2023-02-28T07:22:48;102853.88;;;5.53;49.23
31299;BME280;17927;52.350;13.402;2023-02-28T07:25:20;102855.28;;;5.63;49.27
31299;BME280;17927;52.350;13.402;2023-02-28T07:27:45;102857.66;;;5.71;49.10
31299;BME280;17927;52.350;13.402;2023-02-28T07:30:11;102844.84;;;5.79;48.98
31299;BME280;17927;52.350;13.402;2023-02-28T07:32:37;102851.66;;;5.88;49.02
31299;BME280;17927;52.350;13.402;2023-02-28T07:35:04;102845.91;;;5.98;48.77
31299;BME280;17927;52.350;13.402;2023-02-28T07:37:29;102842.94;;;6.05;48.58
31299;BME280;17927;52.350;13.402;2023-02-28T07:39:56;102849.81;;;6.13;48.67
31299;BME280;17927;52.350;13.402;2023-02-28T07:42:21;102846.81;;;6.20;48.53
31299;BME280;17927;52.350;13.402;2023-02-28T07:44:47;102854.56;;;6.28;48.59
31299;BME280;17927;52.350;13.402;2023-02-28T07:47:12;102846.22;;;6.34;48.42
31299;BME280;17927;52.350;13.402;2023-02-28T07:49:37;102851.22;;;6.44;48.30
31299;BME280;17927;52.350;13.402;2023-02-28T07:52:04;102849.09;;;6.52;48.19
31299;BME280;17927;52.350;13.402;2023-02-28T07:54:30;102856.75;;;6.61;47.95
31299;BME280;17927;52.350;13.402;2023-02-28T07:56:55;102852.78;;;6.70;47.83
31299;BME280;17927;52.350;13.402;2023-02-28T07:59:20;102848.03;;;6.77;47.84
31299;BME280;17927;52.350;13.402;2023-02-28T08:01:45;102858.25;;;6.89;47.54
31299;BME280;17927;52.350;13.402;2023-02-28T08:04:11;102863.28;;;6.97;47.42
31299;BME280;17927;52.350;13.402;2023-02-28T08:06:36;102861.06;;;7.07;47.53
31299;BME280;17927;52.350;13.402;2023-02-28T08:09:02;102865.94;;;7.18;47.36
31299;BME280;17927;52.350;13.402;2023-02-28T08:11:27;102860.28;;;7.24;47.20
31299;BME280;17927;52.350;13.402;2023-02-28T08:13:54;102860.81;;;7.32;46.94
31299;BME280;17927;52.350;13.402;2023-02-28T08:16:19;102865.84;;;7.40;46.92
31299;BME280;17927;52.350;13.402;2023-02-28T08:18:50;102866.38;;;7.48;46.90
31299;BME280;17927;52.350;13.402;2023-02-28T08:21:15;102864.25;;;7.55;46.64
31299;BME280;17927;52.350;13.402;2023-02-28T08:23:41;102860.41;;;7.60;46.44
31299;BME280;17927;52.350;13.402;2023-02-28T08:26:06;102868.25;;;7.65;46.41
31299;BME280;17927;52.350;13.402;2023-02-28T08:28:31;102872.47;;;7.71;46.19
31299;BME280;17927;52.350;13.402;2023-02-28T08:30:57;102863.19;;;7.78;46.50
31299;BME280;17927;52.350;13.402;2023-02-28T08:33:24;102865.59;;;7.84;46.10
31299;BME280;17927;52.350;13.402;2023-02-28T08:35:52;102865.28;;;7.90;45.67
31299;BME280;17927;52.350;13.402;2023-02-28T08:38:18;102872.19;;;7.96;45.82
31299;BME280;17927;52.350;13.402;2023-02-28T08:40:43;102871.91;;;8.02;45.61
31299;BME280;17927;52.350;13.402;2023-02-28T08:43:08;102863.53;;;8.08;45.78
31299;BME280;17927;52.350;13.402;2023-02-28T08:45:34;102865.91;;;8.15;45.28
31299;BME280;17927;52.350;13.402;2023-02-28T08:47:59;102862.91;;;8.21;45.34
31299;BME280;17927;52.350;13.402;2023-02-28T08:50:24;102861.66;;;8.28;44.88
31299;BME280;17927;52.350;13.402;2023-02-28T08:52:49;102864.13;;;8.33;44.74
31299;BME280;17927;52.350;13.402;2023-02-28T08:55:15;102871.91;;;8.39;44.58
31299;BME280;17927;52.350;13.402;2023-02-28T08:57:40;102865.41;;;8.43;44.53
31299;BME280;17927;52.350;13.402;2023-02-28T09:00:06;102858.88;;;8.49;44.43
31299;BME280;17927;52.350;13.402;2023-02-28T09:02:32;102864.03;;;8.53;44.31
31299;BME280;17927;52.350;13.402;2023-02-28T09:04:58;102863.88;;;8.57;44.09
31299;BME280;17927;52.350;13.402;2023-02-28T09:07:24;102859.13;;;8.62;44.11
31299;BME280;17927;52.350;13.402;2023-02-28T09:09:49;102863.38;;;8.66;43.59
31299;BME280;17927;52.350;13.402;2023-02-28T09:12:21;102862.28;;;8.70;43.45
31299;BME280;17927;52.350;13.402;2023-02-28T09:14:47;102870.22;;;8.73;43.47
31299;BME280;17927;52.350;13.402;2023-02-28T09:17:12;102860.22;;;8.75;43.51
31299;BME280;17927;52.350;13.402;2023-02-28T09:19:37;102860.94;;;8.79;43.30
31299;BME280;17927;52.350;13.402;2023-02-28T09:22:02;102863.47;;;8.82;42.91
31299;BME280;17927;52.350;13.402;2023-02-28T09:24:28;102864.28;;;8.84;42.77
31299;BME280;17927;52.350;13.402;2023-02-28T09:26:53;102864.97;;;8.88;42.84
31299;BME280;17927;52.350;13.402;2023-02-28T09:29:18;102864.72;;;8.92;42.64
31299;BME280;17927;52.350;13.402;2023-02-28T09:31:43;102860.03;;;8.96;42.45
31299;BME280;17927;52.350;13.402;2023-02-28T09:34:10;102868.88;;;8.99;42.46
31299;BME280;17927;52.350;13.402;2023-02-28T09:36:35;102858.78;;;9.03;42.39
31299;BME280;17927;52.350;13.402;2023-02-28T09:39:02;102857.69;;;9.07;41.95
31299;BME280;17927;52.350;13.402;2023-02-28T09:41:36;102857.53;;;9.10;41.58
31299;BME280;17927;52.350;13.402;2023-02-28T09:44:04;102859.88;;;9.17;41.94
31299;BME280;17927;52.350;13.402;2023-02-28T09:46:37;102867.63;;;9.23;41.83
31299;BME280;17927;52.350;13.402;2023-02-28T09:49:08;102859.19;;;9.29;41.73
31299;BME280;17927;52.350;13.402;2023-02-28T09:54:17;102857.13;;;9.34;40.99
31299;BME280;17927;52.350;13.402;2023-02-28T09:56:46;102862.38;;;9.37;41.30
31299;BME280;17927;52.350;13.402;2023-02-28T09:59:26;102864.97;;;9.39;41.16
31299;BME280;17927;52.350;13.402;2023-02-28T10:02:04;102863.16;;;9.39;40.87
31299;BME280;17927;52.350;13.402;2023-02-28T10:04:52;102864.72;;;9.43;40.68
31299;BME280;17927;52.350;13.402;2023-02-28T10:07:29;102861.00;;;9.46;40.61
31299;BME280;17927;52.350;13.402;2023-02-28T10:10:02;102861.41;;;9.38;41.21
31299;BME280;17927;52.350;13.402;2023-02-28T10:12:30;102863.69;;;9.46;41.13
31299;BME280;17927;52.350;13.402;2023-02-28T10:14:58;102873.19;;;9.53;40.52
31299;BME280;17927;52.350;13.402;2023-02-28T10:17:37;102871.28;;;9.55;40.00
31299;BME280;17927;52.350;13.402;2023-02-28T10:20:21;102863.19;;;9.55;40.22
31299;BME280;17927;52.350;13.402;2023-02-28T10:23:13;102856.72;;;9.58;39.46
31299;BME280;17927;52.350;13.402;2023-02-28T10:25:45;102857.72;;;9.57;39.78
31299;BME280;17927;52.350;13.402;2023-02-28T10:28:15;102859.25;;;9.61;39.86
31299;BME280;17927;52.350;13.402;2023-02-28T10:30:46;102854.50;;;9.66;39.71
31299;BME280;17927;52.350;13.402;2023-02-28T10:33:32;102855.19;;;9.70;39.38
31299;BME280;17927;52.350;13.402;2023-02-28T10:35:59;102851.47;;;9.72;39.90
31299;BME280;17927;52.350;13.402;2023-02-28T10:38:34;102860.31;;;9.74;39.33
31299;BME280;17927;52.350;13.402;2023-02-28T10:41:08;102856.59;;;9.77;39.25
31299;BME280;17927;52.350;13.402;2023-02-28T10:43:35;102855.38;;;9.83;39.34
31299;BME280;17927;52.350;13.402;2023-02-28T10:48:37;102853.09;;;9.91;39.12
31299;BME280;17927;52.350;13.402;2023-02-28T10:51:04;102854.78;;;9.94;39.07
31299;BME280;17927;52.350;13.402;2023-02-28T10:53:37;102851.13;;;9.95;38.71
31299;BME280;17927;52.350;13.402;2023-02-28T10:59:03;102847.19;;;10.00;39.01
31299;BME280;17927;52.350;13.402;2023-02-28T11:01:40;102848.72;;;10.04;38.81
31299;BME280;17927;52.350;13.402;2023-02-28T11:07:17;102845.41;;;10.15;38.65
31299;BME280;17927;52.350;13.402;2023-02-28T11:09:46;102841.75;;;10.16;39.05
31299;BME280;17927;52.350;13.402;2023-02-28T11:12:21;102831.56;;;10.21;39.07
31299;BME280;17927;52.350;13.402;2023-02-28T11:14:49;102835.72;;;10.27;38.60
31299;BME280;17927;52.350;13.402;2023-02-28T11:17:24;102825.44;;;10.34;38.47
31299;BME280;17927;52.350;13.402;2023-02-28T11:19:53;102825.09;;;10.40;38.48
31299;BME280;17927;52.350;13.402;2023-02-28T11:22:22;102825.63;;;10.47;38.48
31299;BME280;17927;52.350;13.402;2023-02-28T11:24:51;102818.00;;;10.54;38.04
31299;BME280;17927;52.350;13.402;2023-02-28T11:27:50;102816.59;;;10.62;37.65
31299;BME280;17927;52.350;13.402;2023-02-28T11:32:49;102809.75;;;10.71;37.92
31299;BME280;17927;52.350;13.402;2023-02-28T11:35:26;102800.47;;;10.75;37.56
31299;BME280;17927;52.350;13.402;2023-02-28T11:37:52;102805.78;;;10.77;37.69
31299;BME280;17927;52.350;13.402;2023-02-28T11:40:21;102805.63;;;10.80;37.50
31299;BME280;17927;52.350;13.402;2023-02-28T11:43:18;102813.44;;;10.85;37.13
31299;BME280;17927;52.350;13.402;2023-02-28T11:46:24;102811.31;;;10.90;37.47
31299;BME280;17927;52.350;13.402;2023-02-28T11:51:48;102804.25;;;11.02;38.48
31299;BME280;17927;52.350;13.402;2023-02-28T11:54:39;102802.63;;;11.14;38.35
31299;BME280;17927;52.350;13.402;2023-02-28T11:57:19;102800.22;;;11.23;38.23
31299;BME280;17927;52.350;13.402;2023-02-28T12:00:08;102806.59;;;11.37;38.43
31299;BME280;17927;52.350;13.402;2023-02-28T12:03:01;102804.63;;;11.53;38.55
31299;BME280;17927;52.350;13.402;2023-02-28T12:05:38;102802.97;;;11.65;39.07
31299;BME280;17927;52.350;13.402;2023-02-28T12:22:45;102793.34;;;12.82;38.88
31299;BME280;17927;52.350;13.402;2023-02-28T12:25:24;102794.63;;;13.02;38.88
31299;BME280;17927;52.350;13.402;2023-02-28T12:27:57;102798.66;;;13.22;39.18
31299;BME280;17927;52.350;13.402;2023-02-28T12:30:30;102781.81;;;13.43;38.16
31299;BME280;17927;52.350;13.402;2023-02-28T12:33:03;102786.88;;;13.61;37.62
31299;BME280;17927;52.350;13.402;2023-02-28T12:35:36;102776.94;;;13.73;37.18
31299;BME280;17927;52.350;13.402;2023-02-28T12:38:12;102776.78;;;13.87;36.75
31299;BME280;17927;52.350;13.402;2023-02-28T12:40:49;102768.56;;;14.00;36.82
31299;BME280;17927;52.350;13.402;2023-02-28T12:43:17;102764.44;;;14.19;37.34
31299;BME280;17927;52.350;13.402;2023-02-28T12:45:49;102754.00;;;14.37;36.75
31299;BME280;17927;52.350;13.402;2023-02-28T12:48:42;102749.34;;;14.61;35.72
31299;BME280;17927;52.350;13.402;2023-02-28T12:51:08;102742.16;;;14.60;37.78
31299;BME280;17927;52.350;13.402;2023-02-28T12:53:49;102745.06;;;14.82;36.51
31299;BME280;17927;52.350;13.402;2023-02-28T12:56:18;102748.28;;;14.98;37.05
31299;BME280;17927;52.350;13.402;2023-02-28T12:58:49;102738.88;;;15.14;36.03
31299;BME280;17927;52.350;13.402;2023-02-28T13:04:28;102719.78;;;15.48;35.62
31299;BME280;17927;52.350;13.402;2023-02-28T13:07:14;102720.47;;;15.61;35.28
31299;BME280;17927;52.350;13.402;2023-02-28T13:09:55;102710.41;;;15.73;34.92
31299;BME280;17927;52.350;13.402;2023-02-28T13:12:21;102718.53;;;15.84;35.34
31299;BME280;17927;52.350;13.402;2023-02-28T13:14:48;102712.69;;;16.01;34.81
31299;BME280;17927;52.350;13.402;2023-02-28T13:17:20;102703.06;;;16.18;33.99
31299;BME280;17927;52.350;13.402;2023-02-28T13:22:37;102704.16;;;16.57;33.26
31299;BME280;17927;52.350;13.402;2023-02-28T13:26:05;102709.25;;;16.72;32.84
31299;BME280;17927;52.350;13.402;2023-02-28T13:28:13;102698.53;;;16.80;34.14
31299;BME280;17927;52.350;13.402;2023-02-28T13:34:05;102703.84;;;17.13;33.74
31299;BME280;17927;52.350;13.402;2023-02-28T13:38:52;102703.91;;;17.52;33.08
31299;BME280;17927;52.350;13.402;2023-02-28T13:46:32;102692.63;;;18.06;32.13
31299;BME280;17927;52.350;13.402;2023-02-28T13:49:18;102689.13;;;18.23;31.16
31299;BME280;17927;52.350;13.402;2023-02-28T13:51:48;102686.22;;;18.35;31.43
31299;BME280;17927;52.350;13.402;2023-02-28T13:56:48;102690.25;;;18.31;34.53
31299;BME280;17927;52.350;13.402;2023-02-28T13:59:24;102688.63;;;18.58;32.88
31299;BME280;17927;52.350;13.402;2023-02-28T14:02:23;102688.94;;;18.82;31.71
31299;BME280;17927;52.350;13.402;2023-02-28T14:04:49;102686.44;;;18.99;30.91
31299;BME280;17927;52.350;13.402;2023-02-28T14:07:23;102683.50;;;19.10;29.97
31299;BME280;17927;52.350;13.402;2023-02-28T14:09:57;102673.13;;;19.14;29.61